Time;durP1;ratioP1;P1;durP2;ratioP2;P2;SDS_P1;SDS_P2;PMS_P1;PMS_P2;Temp;Humidity;BMP_temperature;BMP_pressure;BME280_temperature;BME280_humidity;BME280_pressure;Samples;Min_cycle;Max_cycle;Signal;HPM_P1;HPM_P2
2021/12/12 00:01:19;;;;;;;43.42;11.38;;;;;;;5.43;95.08;101830.25;5080263;28;20190;-46
2021/12/12 00:03:49;;;;;;;37.13;10.90;;;;;;;5.43;95.06;101811.56;5095139;28;20028;-47
2021/12/12 00:06:19;;;;;;;49.92;12.95;;;;;;;5.42;95.39;101809.84;5094108;28;20020;-45
2021/12/12 00:09:02;;;;;;;48.40;13.25;;;;;;;5.40;95.47;101811.84;5095728;28;20024;-45
2021/12/12 00:11:29;;;;;;;47.28;12.38;;;;;;;5.38;95.68;101795.09;5054946;28;20106;-49
2021/12/12 00:14:05;;;;;;;42.75;12.32;;;;;;;5.39;95.61;101799.44;5036865;28;20032;-46
2021/12/12 00:16:31;;;;;;;44.05;12.20;;;;;;;5.38;95.84;101792.41;5054768;28;20029;-48
2021/12/12 00:18:57;;;;;;;56.45;14.00;;;;;;;5.37;96.20;101787.19;5082208;28;20491;-47
2021/12/12 00:21:26;;;;;;;46.97;14.05;;;;;;;5.34;96.41;101785.59;5086123;28;20025;-45
2021/12/12 00:23:53;;;;;;;49.17;13.68;;;;;;;5.36;96.49;101789.00;5074713;28;20021;-45
2021/12/12 00:26:18;;;;;;;53.22;13.77;;;;;;;5.35;96.55;101782.00;5074669;28;20048;-43
2021/12/12 00:28:44;;;;;;;38.05;12.63;;;;;;;5.36;96.54;101778.34;5088895;28;20459;-47
2021/12/12 00:31:13;;;;;;;39.95;11.63;;;;;;;5.39;96.64;101783.41;5094848;28;20036;-46
2021/12/12 00:33:41;;;;;;;41.65;12.73;;;;;;;5.39;96.61;101771.91;5094565;28;20121;-46
2021/12/12 00:36:07;;;;;;;48.33;13.70;;;;;;;5.40;96.74;101774.44;5094363;28;20032;-45
2021/12/12 00:38:33;;;;;;;37.55;11.77;;;;;;;5.41;96.60;101775.28;5094418;28;20531;-48
2021/12/12 00:41:04;;;;;;;41.90;12.35;;;;;;;5.41;96.70;101765.47;5094346;28;20024;-44
2021/12/12 00:43:39;;;;;;;34.75;12.13;;;;;;;5.43;96.39;101774.19;5085502;28;20025;-44
2021/12/12 00:46:07;;;;;;;43.95;13.30;;;;;;;5.46;96.34;101779.28;5078537;28;20044;-45
2021/12/12 00:48:34;;;;;;;42.05;12.32;;;;;;;5.49;96.25;101767.50;5074047;28;20435;-42
2021/12/12 00:51:01;;;;;;;44.22;11.68;;;;;;;5.50;96.32;101770.06;5056004;28;20368;-42
2021/12/12 00:53:27;;;;;;;34.43;11.13;;;;;;;5.54;96.08;101764.47;5073960;28;20028;-42
2021/12/12 00:55:54;;;;;;;41.97;10.90;;;;;;;5.58;96.10;101766.75;5072434;28;20020;-40
2021/12/12 00:58:20;;;;;;;40.90;11.63;;;;;;;5.54;96.05;101765.31;5084409;28;20057;-41
2021/12/12 01:00:54;;;;;;;39.85;11.45;;;;;;;5.53;96.81;101773.44;5091062;28;20070;-39
2021/12/12 01:03:30;;;;;;;33.45;10.35;;;;;;;5.55;96.71;101755.47;5068835;28;20041;-40
2021/12/12 01:05:58;;;;;;;36.35;11.35;;;;;;;5.54;96.73;101753.78;5053617;28;20025;-40
2021/12/12 01:08:24;;;;;;;;;;;;;;;5.56;96.70;101757.19;5065612;28;20020;-40
2021/12/12 01:11:00;;;;;;;51.03;11.30;;;;;;;5.55;96.89;101756.31;5093631;28;19934;-39
2021/12/12 01:13:25;;;;;;;28.88;11.13;;;;;;;5.52;97.09;101755.72;5093727;28;20034;-39
2021/12/12 01:15:54;;;;;;;26.98;11.85;;;;;;;5.48;97.14;101758.66;5088251;28;20115;-40
2021/12/12 01:18:28;;;;;;;42.08;13.25;;;;;;;5.43;97.39;101758.19;5073475;28;20111;-40
2021/12/12 01:21:19;;;;;;;36.40;12.57;;;;;;;5.36;97.84;101750.78;5053663;28;20037;-40
2021/12/12 01:23:56;;;;;;;44.88;15.73;;;;;;;5.38;98.44;101749.69;5052034;28;20036;-41
2021/12/12 01:26:22;;;;;;;45.47;15.60;;;;;;;5.36;98.49;101761.47;5053383;28;20485;-39
2021/12/12 01:28:53;;;;;;;60.70;17.10;;;;;;;5.35;98.75;101749.97;5081800;28;20032;-40
2021/12/12 01:31:25;;;;;;;45.13;15.45;;;;;;;5.33;98.92;101762.56;5076283;28;20379;-41
2021/12/12 01:33:58;;;;;;;49.15;16.38;;;;;;;5.31;99.28;101753.00;5092245;28;20035;-42
2021/12/12 01:36:40;;;;;;;40.50;15.30;;;;;;;5.34;99.49;101752.75;5078386;28;20043;-45
2021/12/12 01:39:06;;;;;;;40.03;15.40;;;;;;;5.41;99.53;101760.13;5072978;28;20454;-44
2021/12/12 01:41:35;;;;;;;46.45;15.80;;;;;;;5.40;99.58;101761.09;5072838;28;20024;-42
2021/12/12 01:44:09;;;;;;;41.53;15.63;;;;;;;5.41;99.80;101753.94;5072647;28;20410;-44
2021/12/12 01:46:41;;;;;;;40.38;15.15;;;;;;;5.39;99.92;101756.72;5055091;28;20043;-44
2021/12/12 01:49:13;;;;;;;42.63;15.63;;;;;;;5.39;100.00;101751.38;5071600;28;20032;-48
2021/12/12 01:51:40;;;;;;;35.33;15.23;;;;;;;5.39;100.00;101746.03;5072590;28;20392;-47
2021/12/12 01:54:07;;;;;;;36.22;16.58;;;;;;;5.41;100.00;101746.78;5071588;28;20081;-48
2021/12/12 01:56:42;;;;;;;32.37;16.53;;;;;;;5.39;100.00;101746.03;5072929;28;20130;-47
2021/12/12 01:59:07;;;;;;;45.58;19.35;;;;;;;5.41;100.00;101744.09;5056927;28;20033;-44
2021/12/12 02:01:47;;;;;;;46.13;20.05;;;;;;;5.41;100.00;101738.75;5052669;28;20497;-44
2021/12/12 02:04:39;;;;;;;49.70;19.98;;;;;;;5.41;100.00;101753.94;5052370;28;20017;-45
2021/12/12 02:07:07;;;;;;;48.00;21.02;;;;;;;5.40;100.00;101763.78;5092361;28;20028;-43
2021/12/12 02:09:33;;;;;;;44.28;21.52;;;;;;;5.39;100.00;101753.22;5092735;28;20043;-44
2021/12/12 02:12:00;;;;;;;47.85;21.58;;;;;;;5.38;100.00;101760.38;5092724;28;20024;-44
2021/12/12 02:14:28;;;;;;;48.45;20.80;;;;;;;5.42;100.00;101758.28;5092689;28;20391;-42
2021/12/12 02:16:59;;;;;;;41.90;20.98;;;;;;;5.40;100.00;101758.44;5092331;28;20024;-42
2021/12/12 02:20:02;;;;;;;46.92;22.20;;;;;;;5.39;100.00;101764.72;5092718;28;20024;-41
2021/12/12 02:22:39;;;;;;;49.35;25.00;;;;;;;5.40;100.00;101758.44;5082274;28;20063;-41
2021/12/12 02:36:08;;;;;;;61.72;26.10;;;;;;;5.36;100.00;101734.78;5083504;28;20047;-41
2021/12/12 02:38:34;;;;;;;63.78;28.92;;;;;;;5.34;100.00;101726.03;5092166;28;20066;-41
2021/12/12 02:41:04;;;;;;;69.72;26.85;;;;;;;5.35;100.00;101714.41;5092215;28;20032;-41
2021/12/12 02:43:33;;;;;;;66.47;26.10;;;;;;;5.37;100.00;101724.00;5092056;28;20039;-41
2021/12/12 02:45:59;;;;;;;63.85;25.88;;;;;;;5.37;100.00;101720.44;5092080;28;20436;-41
2021/12/12 02:48:31;;;;;;;70.70;26.80;;;;;;;5.39;100.00;101730.03;5091809;28;20055;-40
2021/12/12 02:51:00;;;;;;;59.08;27.05;;;;;;;5.42;100.00;101737.78;5090671;28;20032;-41
2021/12/12 02:53:30;;;;;;;68.22;25.88;;;;;;;5.43;100.00;101731.47;5090784;28;20020;-41
2021/12/12 02:56:03;;;;;;;66.50;26.95;;;;;;;5.47;100.00;101743.59;5092135;28;20089;-40
2021/12/12 02:58:29;;;;;;;71.25;26.67;;;;;;;5.49;100.00;101736.31;5078142;28;20563;-40
2021/12/12 03:01:10;;;;;;;65.38;26.50;;;;;;;5.54;100.00;101735.94;5072171;28;20028;-40
2021/12/12 03:03:38;;;;;;;62.90;25.83;;;;;;;5.55;100.00;101729.59;5071814;28;20145;-40
2021/12/12 03:06:10;;;;;;;61.58;26.13;;;;;;;5.60;100.00;101731.91;5082569;28;20554;-41
2021/12/12 03:08:38;;;;;;;68.63;26.38;;;;;;;5.61;100.00;101733.59;5090765;28;20553;-40
2021/12/12 03:11:04;;;;;;;66.55;25.33;;;;;;;5.65;100.00;101737.72;5092064;28;20032;-40
2021/12/12 03:13:29;;;;;;;65.38;27.00;;;;;;;5.67;100.00;101738.44;5092127;28;20032;-40
2021/12/12 03:15:55;;;;;;;61.03;26.58;;;;;;;5.69;100.00;101731.16;5092039;28;20024;-41
2021/12/12 03:18:26;;;;;;;53.90;26.00;;;;;;;5.71;100.00;101727.38;5092045;28;20434;-40
2021/12/12 03:20:56;;;;;;;62.92;26.83;;;;;;;5.76;100.00;101721.63;5092061;28;20032;-40
2021/12/12 03:23:43;;;;;;;68.75;25.40;;;;;;;5.78;100.00;101714.34;5090834;28;20020;-41
2021/12/12 03:26:11;;;;;;;58.47;27.13;;;;;;;5.80;100.00;101712.38;5092157;28;20027;-41
2021/12/12 03:28:39;;;;;;;63.42;26.10;;;;;;;5.82;100.00;101710.44;5078918;28;20029;-41
2021/12/12 03:31:08;;;;;;;68.10;25.50;;;;;;;5.87;100.00;101708.22;5077558;28;20028;-41
2021/12/12 03:33:34;;;;;;;66.75;28.20;;;;;;;5.86;100.00;101711.03;5073691;28;20035;-40
2021/12/12 03:36:02;;;;;;;66.10;28.10;;;;;;;5.86;100.00;101719.88;5090528;28;20405;-45
2021/12/12 03:38:29;;;;;;;58.30;26.48;;;;;;;5.91;100.00;101741.72;5091942;28;20122;-40
2021/12/12 03:40:59;;;;;;;65.38;29.23;;;;;;;5.98;100.00;101733.19;5092124;28;20028;-40
2021/12/12 03:43:25;;;;;;;64.90;29.00;;;;;;;5.99;100.00;101733.06;5091874;28;20023;-41
2021/12/12 03:45:51;;;;;;;65.22;28.27;;;;;;;6.01;100.00;101730.28;5091579;28;20028;-41
2021/12/12 03:48:31;;;;;;;56.45;26.60;;;;;;;6.02;100.00;101743.50;5090596;28;20028;-41
2021/12/12 03:51:00;;;;;;;63.75;27.92;;;;;;;6.03;100.00;101745.22;5091257;28;20028;-41
2021/12/12 03:53:27;;;;;;;61.22;28.65;;;;;;;6.05;100.00;101743.22;5095018;28;20078;-41
2021/12/12 03:55:53;;;;;;;61.78;28.50;;;;;;;6.06;100.00;101739.59;5095356;28;20408;-41
2021/12/12 03:58:19;;;;;;;61.67;28.08;;;;;;;6.08;100.00;101742.13;5080834;28;20060;-40
2021/12/12 04:00:49;;;;;;;71.40;29.70;;;;;;;6.07;100.00;101735.94;5077846;28;20052;-41
2021/12/12 04:03:15;;;;;;;62.72;30.17;;;;;;;6.08;100.00;101742.13;5076078;28;20396;-40
2021/12/12 04:05:46;;;;;;;60.50;31.00;;;;;;;6.07;100.00;101738.63;5080543;28;20028;-41
2021/12/12 04:08:11;;;;;;;69.43;30.33;;;;;;;6.09;100.00;101739.34;5095255;28;20028;-41
2021/12/12 04:10:36;;;;;;;58.05;30.65;;;;;;;6.10;100.00;101735.69;5095166;28;20069;-41
2021/12/12 04:13:02;;;;;;;67.60;31.75;;;;;;;6.13;100.00;101739.91;5095088;28;20383;-40
2021/12/12 04:15:27;;;;;;;70.20;33.65;;;;;;;6.14;100.00;101741.63;5093677;28;20064;-40
2021/12/12 04:17:53;;;;;;;73.50;32.78;;;;;;;6.14;100.00;101730.94;5094916;28;20024;-41
2021/12/12 04:20:26;;;;;;;78.82;34.45;;;;;;;6.14;100.00;101730.94;5094984;28;20099;-41
2021/12/12 04:22:52;;;;;;;82.43;36.45;;;;;;;6.16;100.00;101745.00;5094809;28;20031;-41
2021/12/12 04:25:17;;;;;;;78.15;32.58;;;;;;;6.16;100.00;101745.00;5094682;28;20024;-40
2021/12/12 04:27:44;;;;;;;82.70;37.92;;;;;;;6.17;100.00;101746.72;5089806;28;20071;-40
2021/12/12 04:30:11;;;;;;;90.40;37.30;;;;;;;6.18;100.00;101751.06;5081476;28;20032;-40
2021/12/12 04:32:37;;;;;;;92.55;36.55;;;;;;;6.22;100.00;101741.81;5095225;28;20494;-41
2021/12/12 04:35:12;;;;;;;89.07;37.83;;;;;;;6.23;100.00;101740.81;5094885;28;20028;-41
2021/12/12 04:37:38;;;;;;;89.20;38.45;;;;;;;6.25;100.00;101738.03;5095131;28;20035;-41
2021/12/12 04:40:05;;;;;;;103.55;38.67;;;;;;;6.25;100.00;101738.88;5076362;28;20166;-40
2021/12/12 04:42:34;;;;;;;107.38;39.35;;;;;;;6.27;100.00;101747.63;5094675;28;20050;-41
2021/12/12 04:45:24;;;;;;;101.00;38.90;;;;;;;6.29;100.00;101751.00;5094291;28;20075;-40
2021/12/12 04:51:16;;;;;;;104.35;41.22;;;;;;;6.30;100.00;101751.84;5094850;28;20046;-41
2021/12/12 04:53:47;;;;;;;109.45;40.20;;;;;;;6.31;100.00;101754.38;5086022;28;20114;-41
2021/12/12 04:56:31;;;;;;;111.18;42.28;;;;;;;6.34;100.00;101751.44;5093395;28;20024;-41
2021/12/12 04:59:08;;;;;;;113.90;41.60;;;;;;;6.37;100.00;101764.56;5076684;28;20400;-41
2021/12/12 05:01:40;;;;;;;113.25;40.63;;;;;;;6.40;100.00;101757.22;5072854;28;20044;-40
2021/12/12 05:04:18;;;;;;;110.05;42.17;;;;;;;6.40;100.00;101757.22;5072697;28;20112;-41
2021/12/12 05:06:50;;;;;;;117.05;42.55;;;;;;;6.40;100.00;101757.22;5073971;28;20098;-41
2021/12/12 05:09:19;;;;;;;123.22;43.33;;;;;;;6.41;100.00;101758.94;5073884;28;20098;-41
2021/12/12 05:11:58;;;;;;;127.50;46.38;;;;;;;6.40;100.00;101766.13;5073734;28;20033;-41
2021/12/12 05:14:28;;;;;;;121.13;45.28;;;;;;;6.44;100.00;101753.31;5073777;28;20025;-41
2021/12/12 05:17:09;;;;;;;119.22;44.55;;;;;;;6.44;100.00;101756.00;5072434;28;20107;-41
2021/12/12 05:19:37;;;;;;;123.50;46.53;;;;;;;6.43;100.00;101760.50;5073855;28;20024;-42
2021/12/12 05:22:09;;;;;;;139.85;47.05;;;;;;;6.45;100.00;101774.59;5072450;28;20103;-41
2021/12/12 05:24:37;;;;;;;127.40;46.85;;;;;;;6.48;100.00;101766.31;5072463;28;20036;-41
2021/12/12 05:27:17;;;;;;;125.22;47.17;;;;;;;6.51;100.00;101770.53;5074435;28;20024;-41
2021/12/12 05:29:53;;;;;;;137.90;47.40;;;;;;;6.50;100.00;101769.72;5056377;28;20039;-42
2021/12/12 05:32:19;;;;;;;140.88;48.60;;;;;;;6.51;100.00;101770.53;5052100;28;20033;-41
2021/12/12 05:34:49;;;;;;;140.48;47.30;;;;;;;6.51;100.00;101762.53;5051892;28;20120;-42
2021/12/12 05:37:16;;;;;;;138.65;47.50;;;;;;;6.53;100.00;101765.88;5053482;28;20461;-41
2021/12/12 05:39:41;;;;;;;132.57;48.58;;;;;;;6.54;100.00;101780.97;5064827;28;20036;-41
2021/12/12 05:42:07;;;;;;;143.60;48.03;;;;;;;6.56;100.00;101777.19;5092055;28;20024;-41
2021/12/12 05:44:33;;;;;;;141.25;48.70;;;;;;;6.57;100.00;101780.69;5091889;28;20045;-41
2021/12/12 05:47:01;;;;;;;148.55;50.58;;;;;;;6.60;100.00;101786.63;5093216;28;20111;-41
2021/12/12 05:49:27;;;;;;;147.85;49.03;;;;;;;6.60;100.00;101786.63;5093187;28;20089;-41
2021/12/12 05:51:53;;;;;;;141.80;48.63;;;;;;;6.62;100.00;101783.84;5084903;28;20106;-42
2021/12/12 05:54:18;;;;;;;156.57;51.85;;;;;;;6.64;100.00;101786.38;5073068;28;20076;-41
2021/12/12 05:56:44;;;;;;;159.00;48.63;;;;;;;6.66;100.00;101785.28;5072571;28;20020;-41
2021/12/12 05:59:11;;;;;;;154.35;50.20;;;;;;;6.67;100.00;101780.75;5086775;28;20035;-41
2021/12/12 06:01:38;;;;;;;173.27;50.20;;;;;;;6.71;100.00;101793.72;5080104;28;20090;-41
2021/12/12 06:04:04;;;;;;;156.98;49.05;;;;;;;6.74;100.00;101795.28;5074575;28;20032;-41
2021/12/12 06:06:37;;;;;;;153.80;48.80;;;;;;;6.76;100.00;101794.16;5072504;28;20035;-41
2021/12/12 06:09:06;;;;;;;158.95;49.63;;;;;;;6.79;100.00;101791.25;5071441;28;20028;-41
2021/12/12 06:11:33;;;;;;;168.02;48.50;;;;;;;6.85;100.00;101797.03;5072605;28;20035;-41
2021/12/12 06:14:00;;;;;;;154.40;47.83;;;;;;;6.88;100.00;101796.78;5072308;28;20116;-41
2021/12/12 06:16:26;;;;;;;153.00;48.57;;;;;;;6.91;100.00;101796.50;5071060;28;20028;-41
2021/12/12 06:18:56;;;;;;;172.73;48.45;;;;;;;6.92;100.00;101799.03;5080986;28;20399;-40
2021/12/12 06:21:21;;;;;;;143.10;45.78;;;;;;;6.96;100.00;101803.13;5082535;28;20364;-39
2021/12/12 06:23:47;;;;;;;156.02;48.25;;;;;;;6.98;100.00;101800.34;5071839;28;20024;-40
2021/12/12 06:26:12;;;;;;;173.25;49.80;;;;;;;6.99;100.00;101796.66;5072140;28;20040;-39
2021/12/12 06:28:40;;;;;;;181.57;50.88;;;;;;;7.02;100.00;101802.59;5075098;28;20574;-42
2021/12/12 06:31:06;;;;;;;165.88;49.50;;;;;;;7.02;100.00;101791.03;5074992;28;20476;-41
2021/12/12 06:33:32;;;;;;;173.13;49.58;;;;;;;7.03;100.00;101806.13;5079340;28;20104;-42
2021/12/12 06:35:58;;;;;;;163.50;46.50;;;;;;;7.06;100.00;101804.97;5069432;28;20103;-42
2021/12/12 06:38:24;;;;;;;164.80;47.70;;;;;;;7.04;100.00;101805.16;5069918;28;20036;-40
2021/12/12 06:40:50;;;;;;;157.00;47.17;;;;;;;7.04;100.00;101805.16;5073379;28;20043;-44
2021/12/12 06:43:18;;;;;;;163.80;48.67;;;;;;;7.05;100.00;101801.47;5073347;28;20066;-40
2021/12/12 06:45:44;;;;;;;178.32;52.17;;;;;;;7.06;100.00;101803.19;5089378;28;20105;-42
2021/12/12 06:48:11;;;;;;;175.63;49.63;;;;;;;7.08;100.00;101805.72;5084731;28;20024;-40
2021/12/12 06:50:40;;;;;;;189.95;49.28;;;;;;;7.12;100.00;101810.66;5080892;28;20133;-40
2021/12/12 06:53:06;;;;;;;168.63;47.38;;;;;;;7.11;100.00;101813.47;5068227;28;20039;-41
2021/12/12 06:55:33;;;;;;;175.35;46.63;;;;;;;7.12;100.00;101818.69;5069439;28;20031;-41
2021/12/12 06:57:59;;;;;;;192.85;48.10;;;;;;;7.13;100.00;101815.03;5068100;28;20090;-40
2021/12/12 07:00:26;;;;;;;173.75;48.17;;;;;;;7.12;100.00;101813.34;5069376;28;20035;-42
2021/12/12 07:02:51;;;;;;;179.88;48.17;;;;;;;7.17;100.00;101819.13;5080531;28;20024;-40
2021/12/12 07:05:23;;;;;;;175.20;49.08;;;;;;;7.18;100.00;101820.81;5069400;28;20035;-39
2021/12/12 07:07:50;;;;;;;168.73;47.25;;;;;;;7.19;100.00;101819.84;5082044;28;20031;-40
2021/12/12 07:10:17;;;;;;;169.30;49.20;;;;;;;7.21;100.00;101827.72;5088381;28;20488;-39
2021/12/12 07:12:44;;;;;;;172.20;48.50;;;;;;;7.21;100.00;101827.72;5089639;28;20032;-40
2021/12/12 07:15:13;;;;;;;173.90;47.60;;;;;;;7.26;100.00;101836.22;5089211;28;20044;-41
2021/12/12 07:17:39;;;;;;;168.32;46.83;;;;;;;7.29;100.00;101837.75;5089702;28;20025;-40
2021/12/12 07:20:07;;;;;;;172.15;46.50;;;;;;;7.28;100.00;101838.75;5089310;28;20028;-47
2021/12/12 07:22:33;;;;;;;172.43;47.42;;;;;;;7.29;100.00;101840.44;5088586;28;20020;-47
2021/12/12 07:25:05;;;;;;;165.27;49.72;;;;;;;7.31;100.00;101838.47;5070952;28;20460;-45
2021/12/12 07:27:30;;;;;;;147.05;47.03;;;;;;;7.30;100.00;101842.16;5090972;28;20208;-43
2021/12/12 07:29:58;;;;;;;174.85;47.45;;;;;;;7.29;100.00;101840.44;5092815;28;20103;-46
2021/12/12 07:32:25;;;;;;;176.48;51.83;;;;;;;7.31;100.00;101854.53;5067442;28;20501;-47
2021/12/12 07:34:50;;;;;;;198.30;48.33;;;;;;;7.33;100.00;101841.88;5070907;28;20510;-45
2021/12/12 07:37:16;;;;;;;174.75;47.78;;;;;;;7.33;100.00;101836.53;5068204;28;20024;-48
2021/12/12 07:39:43;;;;;;;183.10;48.50;;;;;;;7.33;100.00;101841.88;5083640;28;20032;-47
2021/12/12 07:42:09;;;;;;;197.82;49.42;;;;;;;7.36;100.00;101841.59;5072729;28;20035;-45
2021/12/12 07:44:37;;;;;;;192.13;48.75;;;;;;;7.37;100.00;101843.28;5068939;28;20374;-46
2021/12/12 07:47:05;;;;;;;193.05;48.90;;;;;;;7.36;100.00;101846.97;5072198;28;20566;-48
2021/12/12 07:49:34;;;;;;;192.02;48.38;;;;;;;7.37;100.00;101843.28;5068008;28;20063;-46
2021/12/12 07:52:00;;;;;;;182.65;47.10;;;;;;;7.39;100.00;101849.34;5067848;28;20052;-45
2021/12/12 07:54:26;;;;;;;205.20;49.53;;;;;;;7.40;100.00;101856.44;5059043;28;20068;-44
2021/12/12 07:56:52;;;;;;;216.32;49.17;;;;;;;7.43;100.00;101856.16;5065927;28;20120;-43
2021/12/12 07:59:19;;;;;;;210.30;49.63;;;;;;;7.43;100.00;101851.63;5058753;28;20550;-43
2021/12/12 08:01:46;;;;;;;202.00;48.88;;;;;;;7.46;100.00;101858.56;5065232;28;20381;-43
2021/12/12 08:04:14;;;;;;;197.25;50.45;;;;;;;7.47;100.00;101871.78;5051948;28;20043;-46
2021/12/12 08:06:40;;;;;;;216.80;50.20;;;;;;;7.47;100.00;101870.94;5067883;28;20028;-45
2021/12/12 08:09:06;;;;;;;202.98;46.70;;;;;;;7.48;100.00;101868.16;5069071;28;20041;-47
2021/12/12 08:11:33;;;;;;;197.52;48.55;;;;;;;7.52;100.00;101874.06;5068992;28;20119;-46
2021/12/12 08:14:00;;;;;;;204.57;46.85;;;;;;;7.56;100.00;101883.53;5070152;28;20078;-47
2021/12/12 08:16:26;;;;;;;209.07;49.40;;;;;;;7.57;100.00;101885.22;5070368;28;20341;-47
2021/12/12 08:18:51;;;;;;;191.65;48.78;;;;;;;7.61;100.00;101886.66;5071906;28;20024;-49
2021/12/12 08:21:18;;;;;;;188.10;50.05;;;;;;;7.63;100.00;101898.06;5068379;28;20032;-48
2021/12/12 08:23:44;;;;;;;174.57;44.80;;;;;;;7.65;100.00;101888.06;5066662;28;20086;-47
2021/12/12 08:26:10;;;;;;;190.18;46.22;;;;;;;7.66;100.00;101891.56;5073266;28;20027;-47
2021/12/12 08:28:36;;;;;;;174.18;43.42;;;;;;;7.68;100.00;101898.50;5086063;28;20058;-47
2021/12/12 08:31:02;;;;;;;157.77;40.60;;;;;;;7.70;100.00;101901.91;5072255;28;20438;-48
2021/12/12 08:33:28;;;;;;;163.63;40.78;;;;;;;7.73;100.00;101903.44;5071654;28;20055;-42
2021/12/12 08:35:55;;;;;;;155.65;38.03;;;;;;;7.75;100.00;101906.00;5058113;28;20057;-45
2021/12/12 08:38:22;;;;;;;135.23;36.70;;;;;;;7.77;100.00;101902.22;5053201;28;20029;-44
2021/12/12 08:40:50;;;;;;;143.02;36.33;;;;;;;7.82;100.00;101913.38;5074748;28;20096;-44
2021/12/12 08:43:17;;;;;;;146.32;36.72;;;;;;;7.83;100.00;101912.38;5071378;28;20029;-44
2021/12/12 08:45:46;;;;;;;118.55;34.33;;;;;;;7.88;100.00;101917.31;5061921;28;20041;-44
2021/12/12 08:48:16;;;;;;;121.90;32.67;;;;;;;7.90;100.00;101926.91;5074429;28;20036;-45
2021/12/12 08:50:44;;;;;;;126.50;33.35;;;;;;;7.93;100.00;101923.13;5058035;28;20123;-48
2021/12/12 08:53:10;;;;;;;112.40;32.25;;;;;;;7.97;100.00;101921.84;5065690;28;20075;-45
2021/12/12 08:55:39;;;;;;;102.10;28.88;;;;;;;8.03;100.00;101926.66;5058153;28;20041;-47
2021/12/12 08:58:17;;;;;;;108.90;29.05;;;;;;;8.07;100.00;101929.91;5051042;28;20392;-47
2021/12/12 09:00:58;;;;;;;100.63;28.48;;;;;;;8.09;100.00;101936.81;5053338;28;20063;-43
2021/12/12 09:03:28;;;;;;;103.95;28.05;;;;;;;8.14;100.00;101942.63;5051123;28;20174;-48
2021/12/12 09:05:55;;;;;;;80.28;25.98;;;;;;;8.19;100.00;101941.34;5081583;28;20625;-45
2021/12/12 09:08:29;;;;;;;89.88;25.80;;;;;;;8.22;100.00;101941.94;5070869;28;20036;-41
2021/12/12 09:11:05;;;;;;;73.85;23.30;;;;;;;8.27;100.00;101946.88;5068605;28;20047;-45
2021/12/12 09:13:46;;;;;;;69.70;22.23;;;;;;;8.32;100.00;101947.28;5069234;28;20566;-46
2021/12/12 09:16:20;;;;;;;67.65;21.63;;;;;;;8.37;100.00;101947.69;5070967;28;20040;-45
2021/12/12 09:19:09;;;;;;;62.60;21.48;;;;;;;8.44;100.00;101962.28;5070176;28;20037;-50
2021/12/12 09:21:48;;;;;;;65.97;21.48;;;;;;;8.46;100.00;101952.28;5071003;28;20127;-47
2021/12/12 09:24:46;;;;;;;71.30;22.88;;;;;;;8.50;100.00;101950.97;5062697;28;20040;-44
2021/12/12 09:27:18;;;;;;;67.05;23.08;;;;;;;8.53;100.00;101957.91;5069538;28;20054;-44
2021/12/12 09:30:12;;;;;;;78.85;23.58;;;;;;;8.54;100.00;101960.47;5069633;28;20032;-47
2021/12/12 09:32:44;;;;;;;72.30;22.27;;;;;;;8.55;100.00;101959.47;5060024;28;20079;-44
2021/12/12 09:35:17;;;;;;;71.82;21.70;;;;;;;8.57;100.00;101962.84;5058800;28;20031;-44
2021/12/12 09:37:51;;;;;;;63.60;22.27;;;;;;;8.60;100.00;101971.63;5068998;28;20556;-44
2021/12/12 09:40:25;;;;;;;69.35;21.17;;;;;;;8.61;100.00;101965.25;5080504;28;20057;-47
2021/12/12 09:42:59;;;;;;;56.30;19.77;;;;;;;8.60;100.00;101977.00;5093731;28;20073;-49
2021/12/12 09:45:36;;;;;;;60.97;20.52;;;;;;;8.61;100.00;101973.31;5093474;28;20044;-47
2021/12/12 09:51:26;;;;;;;57.58;19.75;;;;;;;8.63;100.00;101965.97;5054243;28;20044;-46
2021/12/12 09:54:14;;;;;;;58.55;20.38;;;;;;;8.66;100.00;101976.41;5072178;28;20048;-47
2021/12/12 09:56:49;;;;;;;;;;;;;;;8.65;100.00;101969.38;5073644;28;20158;-45
2021/12/12 09:59:32;;;;;;;61.92;20.73;;;;;;;8.65;100.00;101975.56;5072220;28;20372;-45
2021/12/12 10:02:08;;;;;;;58.78;19.95;;;;;;;8.63;100.00;101974.03;5067116;28;20131;-49
2021/12/12 10:05:15;;;;;;;64.32;21.55;;;;;;;8.64;100.00;101971.22;5057755;28;20119;-49
2021/12/12 10:07:49;;;;;;;67.35;22.50;;;;;;;8.65;100.00;101977.41;5073465;28;20090;-44
2021/12/12 10:10:44;;;;;;;72.78;24.33;;;;;;;8.65;100.00;101978.25;5053289;28;20029;-47
2021/12/12 10:13:18;;;;;;;66.63;22.30;;;;;;;8.66;100.00;101976.41;5049385;28;20040;-46
2021/12/12 10:15:50;;;;;;;70.22;24.42;;;;;;;8.68;100.00;101979.81;5048184;28;20044;-47
2021/12/12 10:18:31;;;;;;;74.68;24.08;;;;;;;8.69;100.00;101982.38;5049295;28;20041;-50
2021/12/12 10:21:09;;;;;;;79.03;24.80;;;;;;;8.70;100.00;101981.38;5067913;28;20032;-46
2021/12/12 10:23:52;;;;;;;;;;;;;;;8.72;100.00;101986.59;5070071;28;20036;-45
2021/12/12 10:26:26;;;;;;;79.13;25.48;;;;;;;8.74;100.00;101985.47;5069396;28;19916;-47
2021/12/12 10:28:53;;;;;;;79.93;26.73;;;;;;;8.76;100.00;101988.84;5062438;28;20127;-49
2021/12/12 10:31:21;;;;;;;85.80;28.00;;;;;;;8.78;100.00;101986.03;5050559;28;20033;-44
2021/12/12 10:33:53;;;;;;;84.25;26.63;;;;;;;8.80;100.00;101989.41;5049197;28;20029;-44
2021/12/12 10:36:22;;;;;;;95.18;28.48;;;;;;;8.84;100.00;101985.44;5048934;28;20025;-44
2021/12/12 10:39:01;;;;;;;88.70;28.67;;;;;;;8.87;100.00;101985.16;5049642;28;20036;-45
2021/12/12 10:41:38;;;;;;;84.65;29.20;;;;;;;8.90;100.00;101984.91;5049513;28;20036;-44
2021/12/12 10:44:10;;;;;;;85.97;27.45;;;;;;;8.93;100.00;101995.34;5049294;28;20107;-43
2021/12/12 10:46:36;;;;;;;75.57;27.55;;;;;;;8.96;100.00;101984.31;5048384;28;20033;-44
2021/12/12 10:49:07;;;;;;;78.28;28.13;;;;;;;9.01;100.00;101987.41;5068272;28;20036;-44
2021/12/12 10:51:38;;;;;;;78.25;28.02;;;;;;;9.06;100.00;101986.13;5068613;28;20116;-43
2021/12/12 10:54:15;;;;;;;75.20;27.27;;;;;;;9.10;100.00;101984.84;5062863;28;20039;-42
2021/12/12 10:57:03;;;;;;;78.78;26.80;;;;;;;9.13;100.00;101989.94;5088482;28;20070;-42
2021/12/12 10:59:52;;;;;;;56.67;21.27;;;;;;;9.22;100.00;101986.41;5066105;28;20086;-41
2021/12/12 11:02:21;;;;;;;51.17;20.90;;;;;;;9.28;100.00;101990.34;5054846;28;20041;-41
2021/12/12 11:05:13;;;;;;;48.55;21.42;;;;;;;9.30;100.00;101996.41;5053038;28;20029;-41
2021/12/12 11:07:44;;;;;;;33.33;17.00;;;;;;;9.34;100.00;101993.28;5062396;28;20040;-43
2021/12/12 11:10:17;;;;;;;32.58;17.45;;;;;;;9.36;100.00;101998.50;5058406;28;20048;-44
2021/12/12 11:12:47;;;;;;;26.90;15.45;;;;;;;9.36;100.00;102002.03;5061379;28;20471;-44
2021/12/12 11:15:19;;;;;;;35.50;16.98;;;;;;;9.37;100.00;101997.50;5071558;28;20498;-47
2021/12/12 11:18:04;;;;;;;26.65;14.70;;;;;;;9.37;100.00;102003.75;5075186;28;20035;-51
2021/12/12 11:20:34;;;;;;;24.75;13.57;;;;;;;9.38;100.00;102004.59;5063431;28;20108;-45
2021/12/12 11:23:15;;;;;;;23.25;12.82;;;;;;;9.38;100.00;102000.06;5054697;28;20527;-45
2021/12/12 11:25:44;;;;;;;20.02;13.35;;;;;;;9.38;100.00;102002.75;5074400;28;20035;-46
2021/12/12 11:28:16;;;;;;;22.10;14.23;;;;;;;9.39;100.00;102004.44;5076299;28;20424;-47
2021/12/12 11:30:52;;;;;;;32.08;14.25;;;;;;;9.41;100.00;102009.66;5092362;28;20210;-49
2021/12/12 11:33:19;;;;;;;26.33;15.35;;;;;;;9.42;100.00;102003.28;5094569;28;20032;-50
2021/12/12 11:35:47;;;;;;;27.92;16.65;;;;;;;9.43;100.00;102007.69;5095830;28;20032;-49
2021/12/12 11:38:35;;;;;;;32.47;17.77;;;;;;;9.47;100.00;102010.94;5094442;28;20024;-46
2021/12/12 11:41:08;;;;;;;43.58;18.85;;;;;;;9.45;100.00;102001.19;5095373;28;20399;-49
2021/12/12 11:43:39;;;;;;;40.50;19.02;;;;;;;9.47;100.00;102009.06;5074061;28;20476;-46